Port Alsworth, AK

7:31 AM AKST on December 06, 2016 (GMT -0900)
Iliamna | | Change Station

Elev 161 ft 59.75 °N, 154.91 °W | Updated 21 minutes ago

Overcast
Overcast
21 °F
Feels Like 11 °F
N
9
Wind Variable Wind from North

Today
High -- | Low -- °F
--% Chance of Precip.
Yesterday
High -- | Low -- °F
Precip. -- in
Pressure 30.13 in
Visibility 10.0 miles
Clouds Scattered Clouds 1700 ft
Overcast 3100 ft
Windchill 11 °F
Dew Point 17 °F
Humidity 85%
Rainfall 0.00 in
Snow Depth Not available.
10:04 AM 4:12 PM
Waxing Crescent, 43% visible
SPECI PAIL 061610Z 36008KT 10SM SCT017 OVC031 M06/M08 A3013 RMK AO2 T10611083
Pressure 30.13 in
Visibility 10.0 miles
Clouds Scattered Clouds 1700 ft
Overcast 3100 ft
Windchill 11 °F
Dew Point 17 °F
Humidity 85%
Rainfall 0.00 in
Snow Depth Not available.
10:04 AM 4:12 PM
Waxing Crescent, 43% visible
SPECI PAIL 061610Z 36008KT 10SM SCT017 OVC031 M06/M08 A3013 RMK AO2 T10611083

10-Day Weather Forecast

Almanac

Astronomy

Dec. 06, 2016 Rise Set
Actual Time
Civil Twilight
Nautical Twilight
Astronomical Twilight
Moon
Length of Visible Light
Length of Day
Tomorrow will be .
, % of the Moon is Illuminated

Today's Extremes

State Highs State Lows

Community

WunderPhotos

Upload Photos

1,955,980 photos uploaded!

WunderBlog® & News

Nearby

Air Quality

  Air Quality AQ Index Pollutant
Not available.

Snow Depth

Station Depth Elevation

Earthquake Activity

City Distance Mag. Time & Date
Minimum magnitude displayed is 2.5.

Coastal Water Temperatures

Place Temperature

Stations

Nearby Weather Stations

Station Location Temp. Windchill Dew Point Humidity Wind Precip. Elev Updated Type
                   

Watches & Warnings

There are currently no watches in effect.